Time;durP1;ratioP1;P1;durP2;ratioP2;P2;SDS_P1;SDS_P2;PMS_P1;PMS_P2;Temp;Humidity;BMP_temperature;BMP_pressure;BME280_temperature;BME280_humidity;BME280_pressure;Samples;Min_cycle;Max_cycle;Signal;HPM_P1;HPM_P2
2022/03/30 00:01:18;;;;;;;18.58;4.10;;;20.50;79.90;;;;;;5004113;28;20127;-70
2022/03/30 00:03:45;;;;;;;21.02;3.72;;;20.50;79.90;;;;;;5005288;28;20026;-69
2022/03/30 00:06:11;;;;;;;21.92;3.45;;;20.50;80.00;;;;;;5005386;28;20156;-69
2022/03/30 00:08:38;;;;;;;20.92;4.38;;;20.50;80.10;;;;;;5004405;28;20366;-71
2022/03/30 00:11:04;;;;;;;20.65;3.55;;;20.50;80.10;;;;;;5004911;28;20039;-70
2022/03/30 00:13:31;;;;;;;10.73;4.03;;;20.50;80.00;;;;;;5006178;28;20030;-70
2022/03/30 00:15:57;;;;;;;15.02;3.25;;;20.50;80.00;;;;;;5005280;28;20061;-70
2022/03/30 00:18:24;;;;;;;15.50;3.67;;;20.50;80.00;;;;;;5001318;28;20058;-70
2022/03/30 00:20:50;;;;;;;12.68;3.60;;;20.50;79.90;;;;;;5005203;28;20042;-71
2022/03/30 00:23:17;;;;;;;10.13;2.90;;;20.50;80.00;;;;;;5005319;28;20034;-70
2022/03/30 00:25:44;;;;;;;21.40;4.13;;;20.50;80.10;;;;;;5006572;28;20161;-70
2022/03/30 00:28:10;;;;;;;13.07;3.10;;;20.50;80.00;;;;;;5003600;28;20022;-72
2022/03/30 00:30:37;;;;;;;17.05;3.47;;;20.50;79.90;;;;;;5005709;28;20165;-70
2022/03/30 00:33:04;;;;;;;16.05;3.75;;;20.50;79.80;;;;;;5007064;28;20053;-70
2022/03/30 00:35:30;;;;;;;21.42;3.65;;;20.50;79.70;;;;;;5004473;28;20026;-71
2022/03/30 00:37:57;;;;;;;16.17;3.60;;;20.50;79.70;;;;;;5003108;28;20080;-70
2022/03/30 00:40:24;;;;;;;15.57;3.97;;;20.40;79.60;;;;;;5003864;28;20798;-70
2022/03/30 00:42:50;;;;;;;12.95;3.30;;;20.50;79.70;;;;;;5007413;28;20046;-70
2022/03/30 00:45:23;;;;;;;10.65;3.13;;;20.50;79.50;;;;;;5003873;28;20045;-70
2022/03/30 00:47:51;;;;;;;21.02;3.15;;;20.40;79.40;;;;;;5004150;28;20030;-70
2022/03/30 00:50:20;;;;;;;11.82;3.72;;;20.40;79.30;;;;;;5003072;28;20026;-70
2022/03/30 00:52:57;;;;;;;14.13;3.40;;;20.40;79.30;;;;;;5005111;28;20014;-70
2022/03/30 00:55:24;;;;;;;11.18;2.60;;;20.40;79.20;;;;;;5007434;28;20382;-70
2022/03/30 00:57:54;;;;;;;18.58;4.05;;;20.40;79.30;;;;;;5004004;28;20408;-70
2022/03/30 01:00:20;;;;;;;23.05;3.80;;;20.40;79.30;;;;;;5007108;28;20139;-69
2022/03/30 01:02:48;;;;;;;22.92;3.35;;;20.30;79.40;;;;;;5004309;28;20038;-70
2022/03/30 01:05:16;;;;;;;22.08;3.83;;;20.40;79.50;;;;;;5003551;28;20050;-70
2022/03/30 01:07:42;;;;;;;15.25;3.03;;;20.40;79.70;;;;;;5003236;28;20018;-70
2022/03/30 01:10:10;;;;;;;10.77;1.88;;;20.30;79.80;;;;;;5003716;28;20022;-70
2022/03/30 01:12:41;;;;;;;10.50;3.63;;;20.40;79.80;;;;;;5005498;28;20441;-70
2022/03/30 01:15:09;;;;;;;13.82;2.70;;;20.30;79.70;;;;;;5000037;28;20030;-70
2022/03/30 01:17:39;;;;;;;11.23;3.30;;;20.30;79.80;;;;;;5005756;28;20034;-70
2022/03/30 01:20:07;;;;;;;9.80;2.45;;;20.30;79.70;;;;;;5003755;28;20440;-70
2022/03/30 01:22:34;;;;;;;7.40;2.33;;;20.30;79.60;;;;;;5004930;28;20405;-70
2022/03/30 01:25:01;;;;;;;11.75;2.63;;;20.30;79.60;;;;;;5004789;28;20049;-69
2022/03/30 01:27:27;;;;;;;8.70;2.30;;;20.30;79.60;;;;;;5006580;28;20184;-69
2022/03/30 01:32:41;;;;;;;6.93;2.47;;;20.30;79.50;;;;;;5010189;28;20503;-70
2022/03/30 01:35:10;;;;;;;10.20;4.00;;;20.30;79.30;;;;;;5002536;28;20113;-69
2022/03/30 01:37:37;;;;;;;12.07;2.55;;;20.30;79.30;;;;;;5010134;28;20024;-70
2022/03/30 01:40:06;;;;;;;7.32;3.15;;;20.30;79.20;;;;;;5006787;28;20466;-69
2022/03/30 01:42:33;;;;;;;10.90;1.85;;;20.30;79.20;;;;;;5010737;28;20034;-70
2022/03/30 01:44:59;;;;;;;9.57;2.95;;;20.30;79.10;;;;;;5007151;28;20014;-71
2022/03/30 01:47:26;;;;;;;8.02;2.10;;;20.30;79.10;;;;;;5008308;28;20033;-70
2022/03/30 01:49:53;;;;;;;6.47;2.85;;;20.30;79.00;;;;;;5009227;28;20026;-71
2022/03/30 01:52:19;;;;;;;7.07;1.73;;;20.20;78.80;;;;;;5009949;28;20067;-71
2022/03/30 01:54:46;;;;;;;8.93;2.30;;;20.20;78.70;;;;;;5006018;28;20042;-70
2022/03/30 01:57:13;;;;;;;4.25;1.60;;;20.20;78.70;;;;;;5005264;28;20022;-70
2022/03/30 01:59:41;;;;;;;4.72;1.42;;;20.20;78.70;;;;;;5005152;28;20506;-70
2022/03/30 02:02:08;;;;;;;7.55;2.72;;;20.20;78.70;;;;;;5008376;28;20037;-71
2022/03/30 02:04:38;;;;;;;11.98;2.63;;;20.20;78.50;;;;;;5006757;28;20803;-69
2022/03/30 02:07:08;;;;;;;4.20;1.90;;;20.20;78.40;;;;;;5005286;28;20033;-70
2022/03/30 02:09:34;;;;;;;10.95;2.03;;;20.20;78.40;;;;;;5005914;28;20026;-69
2022/03/30 02:12:01;;;;;;;5.45;1.70;;;20.20;78.30;;;;;;5003209;28;20030;-70
2022/03/30 02:14:28;;;;;;;4.65;1.55;;;20.20;78.30;;;;;;5007195;28;20006;-71
2022/03/30 02:16:54;;;;;;;13.52;2.22;;;20.20;78.30;;;;;;5006196;28;20033;-71
2022/03/30 02:19:21;;;;;;;11.10;2.10;;;20.20;78.30;;;;;;5007813;28;20025;-70
2022/03/30 02:21:47;;;;;;;11.45;1.60;;;20.20;78.30;;;;;;5003313;28;20034;-70
2022/03/30 02:24:14;;;;;;;5.28;1.85;;;20.20;78.30;;;;;;5008428;28;20014;-70
2022/03/30 02:26:41;;;;;;;5.55;1.90;;;20.20;78.40;;;;;;5007988;28;20022;-71
2022/03/30 02:29:07;;;;;;;5.35;1.45;;;20.20;78.30;;;;;;5008281;28;20018;-70
2022/03/30 02:31:34;;;;;;;9.77;2.15;;;20.10;78.30;;;;;;5007599;28;20392;-70
2022/03/30 02:34:01;;;;;;;7.45;2.53;;;20.10;78.30;;;;;;5008513;28;20026;-70
2022/03/30 02:36:27;;;;;;;5.32;2.30;;;20.20;78.40;;;;;;5006367;28;20034;-70
2022/03/30 02:38:55;;;;;;;22.42;2.25;;;20.10;78.40;;;;;;5005660;28;20555;-71
2022/03/30 02:41:22;;;;;;;26.27;3.42;;;20.10;78.50;;;;;;5006011;28;20445;-69
2022/03/30 02:43:48;;;;;;;89.25;10.27;;;20.10;78.90;;;;;;5007162;28;20579;-72
2022/03/30 02:46:15;;;;;;;49.55;13.90;;;20.20;79.70;;;;;;5007122;28;20117;-71
2022/03/30 02:48:42;;;;;;;61.78;9.98;;;20.20;80.00;;;;;;5006188;28;20021;-72
2022/03/30 02:51:09;;;;;;;50.10;7.15;;;20.20;80.20;;;;;;5006864;28;20030;-70
2022/03/30 02:53:36;;;;;;;47.22;5.93;;;20.20;80.40;;;;;;5003378;28;20457;-70
2022/03/30 02:56:04;;;;;;;26.63;3.10;;;20.20;80.40;;;;;;5007543;28;20053;-70
2022/03/30 02:58:31;;;;;;;32.53;2.65;;;20.20;80.40;;;;;;5003002;28;20018;-71
2022/03/30 03:00:58;;;;;;;10.82;3.00;;;20.20;80.30;;;;;;5006630;28;20037;-73
2022/03/30 03:03:25;;;;;;;13.95;1.73;;;20.20;80.10;;;;;;5008250;28;20025;-70
2022/03/30 03:05:51;;;;;;;15.80;3.30;;;20.20;80.00;;;;;;5007194;28;20103;-70
2022/03/30 03:08:18;;;;;;;10.07;2.55;;;20.20;79.80;;;;;;5005758;28;20033;-73
2022/03/30 03:10:47;;;;;;;22.40;2.38;;;20.20;80.10;;;;;;5007343;28;20030;-70
2022/03/30 03:13:16;;;;;;;15.55;2.30;;;20.20;80.20;;;;;;5008004;28;20022;-70
2022/03/30 03:15:44;;;;;;;5.75;2.00;;;20.20;80.10;;;;;;5003617;28;20398;-69
2022/03/30 03:18:10;;;;;;;19.35;3.72;;;20.10;79.50;;;;;;5004565;28;20080;-70
2022/03/30 03:20:37;;;;;;;8.43;1.90;;;20.10;79.10;;;;;;5006288;28;20030;-70
2022/03/30 03:23:03;;;;;;;10.15;2.17;;;20.10;79.00;;;;;;5006797;28;20061;-72
2022/03/30 03:25:34;;;;;;;4.70;1.50;;;20.10;79.00;;;;;;5007600;28;20147;-72
2022/03/30 03:28:01;;;;;;;4.82;1.25;;;20.00;78.90;;;;;;5003446;28;20026;-70
2022/03/30 03:30:29;;;;;;;3.95;1.73;;;20.00;78.90;;;;;;5004017;28;20393;-73
2022/03/30 03:32:56;;;;;;;15.00;1.67;;;20.00;78.90;;;;;;5003689;28;20029;-70
2022/03/30 03:35:23;;;;;;;7.43;1.30;;;19.90;78.90;;;;;;5008491;28;20119;-72
2022/03/30 03:37:49;;;;;;;8.60;1.70;;;20.00;78.90;;;;;;5004315;28;20133;-71
2022/03/30 03:40:17;;;;;;;7.97;2.22;;;19.90;78.80;;;;;;5004999;28;20022;-71
2022/03/30 03:42:44;;;;;;;9.25;2.30;;;19.90;78.80;;;;;;5005910;28;20040;-71
2022/03/30 03:45:12;;;;;;;6.13;1.67;;;19.90;78.90;;;;;;5004855;28;20018;-70
2022/03/30 03:47:39;;;;;;;15.80;3.03;;;19.90;79.00;;;;;;5002985;28;20050;-68
2022/03/30 03:50:06;;;;;;;11.35;2.63;;;19.90;79.10;;;;;;5005604;28;20137;-72
2022/03/30 03:52:33;;;;;;;102.35;9.07;;;19.90;79.10;;;;;;5005205;28;20030;-68
2022/03/30 03:54:59;;;;;;;60.85;7.78;;;19.90;79.90;;;;;;5005886;28;20030;-67
2022/03/30 03:57:26;;;;;;;27.70;7.47;;;19.80;80.10;;;;;;5004207;28;20031;-69
2022/03/30 03:59:52;;;;;;;31.40;6.95;;;19.80;80.30;;;;;;5006689;28;20018;-67
2022/03/30 04:02:19;;;;;;;43.70;5.72;;;19.80;80.40;;;;;;5004271;28;20033;-67
2022/03/30 04:04:45;;;;;;;30.38;4.80;;;19.80;80.50;;;;;;5006841;28;20029;-69
2022/03/30 04:07:12;;;;;;;17.63;3.63;;;19.80;80.60;;;;;;5007122;28;20026;-68
2022/03/30 04:09:39;;;;;;;139.25;11.80;;;19.80;80.50;;;;;;5005177;28;20033;-69
2022/03/30 04:12:06;;;;;;;86.65;18.60;;;19.80;80.30;;;;;;5005649;28;20022;-67
2022/03/30 04:14:33;;;;;;;43.45;10.57;;;19.80;80.60;;;;;;5006704;28;20054;-69
2022/03/30 04:16:59;;;;;;;53.55;12.77;;;19.80;80.60;;;;;;5008008;28;20093;-68
2022/03/30 04:19:26;;;;;;;19.88;7.93;;;19.80;80.60;;;;;;5007193;28;20022;-72
2022/03/30 04:21:53;;;;;;;15.60;5.55;;;19.80;81.20;;;;;;5006352;28;20053;-70
2022/03/30 04:24:19;;;;;;;11.48;4.15;;;19.80;80.60;;;;;;5004670;28;20470;-67
2022/03/30 04:26:46;;;;;;;12.38;3.88;;;19.80;80.40;;;;;;5006193;28;20026;-70
2022/03/30 04:29:12;;;;;;;8.18;3.33;;;19.80;80.40;;;;;;5004567;28;20014;-68
2022/03/30 04:31:39;;;;;;;7.15;2.67;;;19.80;80.30;;;;;;5003691;28;20029;-72
2022/03/30 04:34:05;;;;;;;8.13;3.40;;;19.80;80.10;;;;;;5003984;28;20017;-69
2022/03/30 04:36:32;;;;;;;14.98;3.00;;;19.80;80.00;;;;;;5006389;28;20030;-70
2022/03/30 04:38:58;;;;;;;14.60;3.15;;;19.80;79.90;;;;;;5005109;28;20029;-71
2022/03/30 04:41:25;;;;;;;11.52;3.20;;;19.70;79.40;;;;;;5005035;28;20034;-71
2022/03/30 04:43:51;;;;;;;36.15;4.82;;;19.60;80.60;;;;;;5005800;28;20526;-71
2022/03/30 04:46:18;;;;;;;62.53;7.20;;;19.50;80.30;;;;;;5004294;28;20058;-70
2022/03/30 04:48:44;;;;;;;25.67;4.35;;;19.60;80.90;;;;;;5004742;28;20019;-71
2022/03/30 04:51:12;;;;;;;9.82;2.78;;;19.60;81.00;;;;;;5006941;28;20455;-70
2022/03/30 04:53:38;;;;;;;14.88;3.25;;;19.50;80.80;;;;;;5006655;28;20016;-71
2022/03/30 04:56:06;;;;;;;15.13;5.07;;;19.50;80.50;;;;;;5004920;28;20096;-71
2022/03/30 04:58:32;;;;;;;16.08;2.95;;;19.50;80.50;;;;;;5003904;28;20018;-71
2022/03/30 05:00:59;;;;;;;13.02;2.72;;;19.50;80.60;;;;;;5006522;28;20025;-71
2022/03/30 05:03:25;;;;;;;13.98;2.72;;;19.50;80.40;;;;;;5009990;28;20109;-71
2022/03/30 05:05:52;;;;;;;12.60;3.17;;;19.50;80.30;;;;;;5007937;28;20374;-71
2022/03/30 05:08:18;;;;;;;21.63;3.00;;;19.50;80.30;;;;;;5007572;28;20028;-71
2022/03/30 05:10:46;;;;;;;11.80;2.45;;;19.50;80.20;;;;;;5007827;28;20021;-71
2022/03/30 05:13:14;;;;;;;7.32;2.88;;;19.50;80.30;;;;;;5008128;28;20029;-71
2022/03/30 05:15:40;;;;;;;9.70;2.35;;;19.50;80.30;;;;;;5008516;28;20430;-71
2022/03/30 05:18:07;;;;;;;10.32;2.60;;;19.50;80.20;;;;;;5007934;28;20034;-71
2022/03/30 05:20:34;;;;;;;10.77;3.13;;;19.50;80.20;;;;;;5007841;28;20101;-71
2022/03/30 05:23:00;;;;;;;6.53;2.63;;;19.50;80.20;;;;;;5007935;28;20025;-70
2022/03/30 05:25:27;;;;;;;7.35;2.25;;;19.50;80.10;;;;;;5007938;28;20026;-71
2022/03/30 05:27:53;;;;;;;11.60;2.10;;;19.50;80.00;;;;;;5007927;28;20100;-71
2022/03/30 05:30:20;;;;;;;11.65;2.83;;;19.60;80.10;;;;;;5008210;28;20366;-70
2022/03/30 05:32:48;;;;;;;8.90;2.58;;;19.60;80.10;;;;;;5010004;28;20026;-71
2022/03/30 05:35:15;;;;;;;6.40;1.85;;;19.60;80.20;;;;;;5010008;28;20014;-70
2022/03/30 05:37:45;;;;;;;11.43;2.55;;;19.60;80.20;;;;;;5009483;28;20027;-70
2022/03/30 05:40:12;;;;;;;10.10;2.45;;;19.60;80.20;;;;;;5007684;28;20014;-70
2022/03/30 05:42:38;;;;;;;7.03;2.33;;;19.60;80.20;;;;;;5009069;28;20034;-70
2022/03/30 05:45:05;;;;;;;7.68;2.13;;;19.50;80.20;;;;;;5009146;28;20018;-71
2022/03/30 05:47:32;;;;;;;10.07;2.85;;;19.60;80.30;;;;;;5009402;28;20025;-71
2022/03/30 05:49:58;;;;;;;9.70;1.92;;;19.60;80.40;;;;;;5008788;28;20025;-70
2022/03/30 05:52:25;;;;;;;9.05;2.20;;;19.60;80.50;;;;;;5010483;28;20021;-70
2022/03/30 05:54:51;;;;;;;9.13;1.98;;;19.60;80.60;;;;;;5007370;28;20038;-70
2022/03/30 05:57:21;;;;;;;7.78;2.03;;;19.60;80.70;;;;;;5008964;28;20025;-70
2022/03/30 05:59:48;;;;;;;9.02;2.17;;;19.60;80.80;;;;;;5008960;28;20546;-71
2022/03/30 06:02:16;;;;;;;8.75;2.53;;;19.70;80.90;;;;;;5009754;28;20026;-70
2022/03/30 06:04:43;;;;;;;10.65;3.35;;;19.70;80.90;;;;;;5009575;28;20036;-71
2022/03/30 06:07:10;;;;;;;8.57;3.20;;;19.70;81.10;;;;;;5005411;28;20036;-71
2022/03/30 06:09:36;;;;;;;7.60;2.63;;;19.70;81.00;;;;;;5009572;28;20025;-71
2022/03/30 06:12:07;;;;;;;8.35;2.33;;;19.70;81.10;;;;;;5008044;28;20022;-71
2022/03/30 06:14:34;;;;;;;8.32;2.53;;;19.70;81.10;;;;;;5007455;28;20587;-71
2022/03/30 06:17:04;;;;;;;7.40;2.08;;;19.80;81.10;;;;;;5008429;28;20482;-71
2022/03/30 06:19:33;;;;;;;4.60;2.83;;;19.80;81.10;;;;;;5009792;28;20026;-72
2022/03/30 06:22:04;;;;;;;10.27;3.10;;;19.80;81.10;;;;;;5008106;28;20025;-71
2022/03/30 06:24:30;;;;;;;18.02;3.22;;;19.80;81.10;;;;;;5008522;28;20022;-71
2022/03/30 06:26:57;;;;;;;32.00;4.28;;;19.90;81.20;;;;;;5009646;28;20021;-71
2022/03/30 06:29:23;;;;;;;18.67;2.85;;;19.90;81.50;;;;;;5008888;28;20022;-72
2022/03/30 06:31:50;;;;;;;13.48;3.00;;;19.90;81.50;;;;;;5009371;28;20026;-71
2022/03/30 06:34:16;;;;;;;18.80;4.57;;;19.90;81.40;;;;;;5006317;28;20018;-71
2022/03/30 06:36:44;;;;;;;23.45;4.07;;;20.00;81.50;;;;;;5009070;28;20018;-70
2022/03/30 06:39:10;;;;;;;12.88;2.95;;;20.00;81.40;;;;;;5006967;28;20025;-71
2022/03/30 06:41:38;;;;;;;9.13;2.67;;;20.00;81.40;;;;;;5009443;28;20038;-71
2022/03/30 06:44:05;;;;;;;7.03;2.10;;;20.00;81.40;;;;;;5009790;28;20096;-71
2022/03/30 06:46:37;;;;;;;11.20;3.95;;;20.00;81.40;;;;;;5006509;28;20026;-71
2022/03/30 06:49:07;;;;;;;12.45;3.25;;;20.10;81.50;;;;;;5007859;28;20025;-71
2022/03/30 06:51:34;;;;;;;13.77;3.38;;;20.10;81.50;;;;;;5007060;28;20428;-71
2022/03/30 06:54:01;;;;;;;8.65;2.60;;;20.10;81.50;;;;;;5007920;28;20026;-70
2022/03/30 06:56:28;;;;;;;12.65;3.15;;;20.10;81.60;;;;;;5008332;28;20022;-71
2022/03/30 06:58:54;;;;;;;6.50;2.13;;;20.10;81.30;;;;;;5007520;28;20025;-71
2022/03/30 07:01:21;;;;;;;8.45;2.50;;;20.20;81.10;;;;;;5006979;28;20029;-71
2022/03/30 07:03:47;;;;;;;13.40;2.30;;;20.20;80.90;;;;;;5005502;28;20029;-71
2022/03/30 07:06:14;;;;;;;9.70;3.28;;;20.20;80.70;;;;;;5006882;28;20026;-71
2022/03/30 07:11:26;;;;;;;11.80;2.77;;;20.20;80.40;;;;;;5007260;28;20037;-71
2022/03/30 07:13:52;;;;;;;10.07;2.28;;;20.20;80.30;;;;;;5006718;28;20021;-71
2022/03/30 07:16:19;;;;;;;6.97;2.35;;;20.30;80.50;;;;;;5008046;28;20014;-71
2022/03/30 07:18:46;;;;;;;20.42;4.70;;;20.30;81.20;;;;;;5008475;28;20401;-71
2022/03/30 07:21:12;;;;;;;14.45;4.18;;;20.30;80.80;;;;;;5007757;28;20341;-71
2022/03/30 07:23:39;;;;;;;10.80;2.55;;;20.30;81.10;;;;;;5008231;28;20025;-71
2022/03/30 07:26:06;;;;;;;17.80;3.55;;;20.40;81.30;;;;;;5007056;28;20021;-71
2022/03/30 07:28:35;;;;;;;24.10;4.35;;;20.40;81.40;;;;;;5007933;28;20029;-71
2022/03/30 07:31:02;;;;;;;11.57;2.55;;;20.50;81.40;;;;;;5007307;28;20049;-71
2022/03/30 07:33:29;;;;;;;31.13;4.05;;;20.50;81.20;;;;;;5008164;28;20028;-70
2022/03/30 07:35:56;;;;;;;7.65;2.25;;;20.60;81.00;;;;;;5008260;28;20040;-71
2022/03/30 07:38:23;;;;;;;12.48;4.45;;;20.60;80.70;;;;;;5007308;28;20018;-71
2022/03/30 07:40:50;;;;;;;17.70;2.92;;;20.60;80.70;;;;;;5008436;28;20026;-71
2022/03/30 07:43:18;;;;;;;12.73;4.07;;;20.60;80.80;;;;;;5004612;28;20520;-71
2022/03/30 07:45:44;;;;;;;6.93;2.38;;;20.70;80.90;;;;;;5006691;28;20105;-71
2022/03/30 07:48:12;;;;;;;11.10;2.70;;;20.70;80.70;;;;;;5004619;28;20033;-71
2022/03/30 07:50:39;;;;;;;14.65;2.95;;;20.70;80.60;;;;;;5007678;28;20026;-71
2022/03/30 07:53:08;;;;;;;10.98;3.00;;;20.80;80.60;;;;;;5007455;28;20440;-71
2022/03/30 07:55:35;;;;;;;13.10;2.53;;;20.80;81.20;;;;;;5007436;28;20809;-71
2022/03/30 07:58:02;;;;;;;18.85;3.20;;;20.80;80.20;;;;;;5006790;28;20133;-71
2022/03/30 08:00:29;;;;;;;27.30;4.05;;;20.90;80.10;;;;;;5007203;28;20037;-71
2022/03/30 08:02:56;;;;;;;12.73;2.97;;;20.90;79.80;;;;;;5006672;28;20040;-71
2022/03/30 08:05:22;;;;;;;17.85;5.47;;;20.90;79.40;;;;;;5006782;28;20025;-71
2022/03/30 08:07:49;;;;;;;22.45;3.35;;;21.00;79.70;;;;;;5007941;28;20481;-71
2022/03/30 08:10:15;;;;;;;23.45;4.00;;;21.10;79.80;;;;;;5006865;28;20054;-71
2022/03/30 08:12:42;;;;;;;16.67;3.78;;;21.10;79.30;;;;;;5005546;28;20030;-71
2022/03/30 08:15:09;;;;;;;14.40;3.13;;;21.10;78.50;;;;;;5006275;28;20097;-71
2022/03/30 08:17:37;;;;;;;17.08;3.95;;;21.20;78.20;;;;;;5005961;28;20014;-71
2022/03/30 08:20:04;;;;;;;22.20;4.05;;;21.20;77.90;;;;;;5005623;28;20029;-71
2022/03/30 08:22:31;;;;;;;16.35;3.53;;;21.20;77.70;;;;;;5005695;28;20037;-71
2022/03/30 08:25:00;;;;;;;13.25;3.30;;;21.30;77.80;;;;;;5004617;28;20502;-71
2022/03/30 08:27:30;;;;;;;11.32;4.22;;;21.30;77.70;;;;;;5007771;28;20030;-71
2022/03/30 08:29:58;;;;;;;10.32;2.50;;;21.30;77.70;;;;;;5006679;28;20053;-73
2022/03/30 08:32:25;;;;;;;7.60;2.60;;;21.40;77.70;;;;;;5007452;28;20029;-72
2022/03/30 08:34:53;;;;;;;9.57;3.28;;;21.50;77.60;;;;;;5002921;28;20021;-71
2022/03/30 08:37:20;;;;;;;8.43;2.30;;;21.50;77.60;;;;;;5009174;28;20109;-71
2022/03/30 08:39:48;;;;;;;9.98;2.35;;;21.50;77.50;;;;;;5008548;28;20045;-71
2022/03/30 08:42:17;;;;;;;12.75;2.97;;;21.60;77.20;;;;;;5010085;28;20030;-71
2022/03/30 08:44:46;;;;;;;6.00;2.22;;;21.60;76.80;;;;;;5008926;28;20022;-71
2022/03/30 08:47:14;;;;;;;11.10;2.53;;;21.60;76.80;;;;;;5009943;28;20018;-71
2022/03/30 08:49:42;;;;;;;16.75;3.80;;;21.70;76.10;;;;;;5011003;28;20500;-71
2022/03/30 08:52:10;;;;;;;12.50;4.10;;;21.70;75.30;;;;;;5010106;28;20057;-70
2022/03/30 08:55:17;;;;;;;12.13;4.85;;;21.70;74.40;;;;;;5010370;28;20505;-70
2022/03/30 08:58:23;;;;;;;18.88;6.15;;;21.80;74.10;;;;;;5010468;28;20034;-70
2022/03/30 09:01:29;;;;;;;14.07;4.13;;;21.80;73.60;;;;;;5007317;28;20053;-71
2022/03/30 09:04:35;;;;;;;12.68;3.60;;;21.90;73.20;;;;;;5009820;28;20022;-71
2022/03/30 09:07:41;;;;;;;17.27;5.43;;;21.90;72.90;;;;;;5009401;28;20072;-71
2022/03/30 09:10:50;;;;;;;15.55;3.88;;;22.00;72.40;;;;;;5007977;28;20476;-71
2022/03/30 09:13:56;;;;;;;22.10;3.95;;;22.00;72.00;;;;;;5008351;28;20018;-70
2022/03/30 09:17:02;;;;;;;13.55;3.75;;;22.10;71.70;;;;;;5010934;28;20029;-71
2022/03/30 09:20:11;;;;;;;10.32;4.53;;;22.10;70.60;;;;;;5008568;28;20025;-70
2022/03/30 09:23:17;;;;;;;15.77;3.88;;;22.10;70.30;;;;;;5009521;28;20092;-70
2022/03/30 09:26:23;;;;;;;20.67;4.78;;;22.10;70.60;;;;;;5008873;28;20018;-70
2022/03/30 09:29:29;;;;;;;13.00;3.67;;;22.10;70.50;;;;;;5007452;28;20470;-70
2022/03/30 09:32:35;;;;;;;13.45;4.32;;;22.10;70.90;;;;;;5007628;28;20030;-72
2022/03/30 09:35:42;;;;;;;10.07;4.53;;;22.10;71.10;;;;;;5004357;28;20104;-72
2022/03/30 09:38:48;;;;;;;10.68;3.42;;;22.20;70.80;;;;;;5007449;28;20132;-72
2022/03/30 09:42:10;;;;;;;12.95;3.38;;;22.20;70.40;;;;;;5009538;28;20030;-72
2022/03/30 09:45:29;;;;;;;21.10;3.30;;;22.30;71.30;;;;;;5007614;28;20549;-72
2022/03/30 09:48:37;;;;;;;12.85;3.08;;;22.40;70.60;;;;;;5005695;28;20063;-72
2022/03/30 09:51:43;;;;;;;8.80;3.05;;;22.40;69.90;;;;;;5008661;28;20021;-72
2022/03/30 09:54:58;;;;;;;7.18;2.22;;;22.50;69.70;;;;;;5009886;28;20026;-72
2022/03/30 09:58:07;;;;;;;9.43;2.63;;;22.60;69.20;;;;;;5009420;28;20030;-72
2022/03/30 10:01:29;;;;;;;8.75;2.13;;;22.60;68.90;;;;;;5008043;28;20022;-72
2022/03/30 10:04:35;;;;;;;19.58;3.78;;;22.60;69.00;;;;;;5006643;28;20034;-72
2022/03/30 10:07:42;;;;;;;12.75;3.83;;;22.70;69.70;;;;;;5009275;28;20024;-72
2022/03/30 10:10:48;;;;;;;16.55;3.85;;;22.70;68.80;;;;;;5006557;28;20020;-72
2022/03/30 10:13:14;;;;;;;14.68;3.45;;;22.70;68.40;;;;;;5009475;28;20022;-71
2022/03/30 10:15:41;;;;;;;15.55;3.22;;;22.80;68.40;;;;;;5009569;28;20049;-72
2022/03/30 10:18:08;;;;;;;10.85;2.78;;;22.70;68.10;;;;;;5004738;28;20104;-72
2022/03/30 10:20:35;;;;;;;12.20;4.18;;;22.70;67.80;;;;;;5009776;28;20029;-72
2022/03/30 10:23:21;;;;;;;13.07;2.75;;;22.70;67.70;;;;;;5007622;28;20052;-72
2022/03/30 10:26:22;;;;;;;9.73;2.47;;;22.70;67.70;;;;;;5008238;28;20544;-72
2022/03/30 10:29:01;;;;;;;14.93;3.13;;;22.70;67.30;;;;;;5008649;28;20030;-72
2022/03/30 10:31:30;;;;;;;11.60;3.92;;;22.70;67.20;;;;;;5006733;28;20014;-72
2022/03/30 10:33:56;;;;;;;12.90;3.60;;;22.70;67.30;;;;;;5008817;28;20105;-72
2022/03/30 10:36:29;;;;;;;13.68;2.75;;;22.70;67.40;;;;;;5008554;28;20469;-71
2022/03/30 10:39:16;;;;;;;15.85;3.47;;;22.70;67.60;;;;;;5005383;28;20022;-71
2022/03/30 10:41:56;;;;;;;10.07;2.78;;;22.70;67.80;;;;;;5006517;28;20022;-72
2022/03/30 10:44:45;;;;;;;10.52;3.08;;;22.70;67.60;;;;;;5006377;28;20077;-72
2022/03/30 10:47:23;;;;;;;9.23;2.88;;;22.70;67.10;;;;;;5009256;28;20030;-72
2022/03/30 10:50:02;;;;;;;12.13;3.60;;;22.70;66.90;;;;;;5007338;28;20029;-72
2022/03/30 10:52:40;;;;;;;14.57;3.00;;;22.80;67.00;;;;;;5009324;28;20396;-72
2022/03/30 10:55:16;;;;;;;11.35;3.22;;;22.70;66.70;;;;;;5007144;28;20050;-72
2022/03/30 10:57:58;;;;;;;13.93;4.20;;;22.80;66.70;;;;;;5005694;28;21431;-72
2022/03/30 11:00:36;;;;;;;19.60;4.00;;;22.70;66.70;;;;;;5008907;28;20504;-72
2022/03/30 11:03:14;;;;;;;11.70;3.35;;;22.70;66.60;;;;;;5008734;28;20030;-72
2022/03/30 11:05:45;;;;;;;11.65;3.90;;;22.70;66.60;;;;;;5005713;28;20051;-72
2022/03/30 11:08:33;;;;;;;15.23;3.38;;;22.80;66.50;;;;;;5005590;28;20046;-72
2022/03/30 11:11:04;;;;;;;17.27;3.43;;;22.70;66.30;;;;;;5005509;28;20504;-72
2022/03/30 11:13:31;;;;;;;11.15;3.55;;;22.80;66.50;;;;;;5007866;28;20456;-72
2022/03/30 11:16:00;;;;;;;16.70;3.08;;;22.70;66.30;;;;;;5007070;28;20033;-72
2022/03/30 11:18:28;;;;;;;8.00;3.25;;;22.70;66.00;;;;;;5008160;28;20018;-72
2022/03/30 11:21:14;;;;;;;16.08;3.78;;;22.80;66.10;;;;;;5008629;28;20503;-72
2022/03/30 11:24:03;;;;;;;15.63;3.70;;;22.70;66.00;;;;;;5005942;28;20034;-72
2022/03/30 11:26:50;;;;;;;12.90;3.90;;;22.70;65.90;;;;;;5003843;28;20061;-72
2022/03/30 11:29:41;;;;;;;11.23;4.22;;;22.80;66.20;;;;;;5007313;28;20036;-72
2022/03/30 11:32:38;;;;;;;22.58;5.22;;;22.80;67.10;;;;;;5005772;28;20029;-71
2022/03/30 11:35:10;;;;;;;18.17;4.18;;;22.70;67.60;;;;;;5005665;28;20068;-71
2022/03/30 11:37:42;;;;;;;14.20;4.07;;;22.70;68.10;;;;;;5006085;28;20026;-72
2022/03/30 11:40:12;;;;;;;18.92;4.45;;;22.70;68.20;;;;;;5007673;28;20096;-72
2022/03/30 11:42:51;;;;;;;14.13;3.67;;;22.70;68.20;;;;;;5005217;28;20046;-72
2022/03/30 11:45:20;;;;;;;12.65;4.07;;;22.70;68.40;;;;;;5006888;28;20072;-72
2022/03/30 11:47:52;;;;;;;19.30;4.47;;;22.70;66.80;;;;;;5006633;28;20473;-72
2022/03/30 11:50:37;;;;;;;9.35;3.67;;;22.70;66.10;;;;;;5006824;28;20580;-72
2022/03/30 11:53:18;;;;;;;15.35;3.28;;;22.70;65.50;;;;;;5005760;28;20026;-72
2022/03/30 11:55:49;;;;;;;12.68;3.08;;;22.70;65.20;;;;;;5003426;28;20392;-72
2022/03/30 11:58:28;;;;;;;10.45;2.67;;;22.70;65.30;;;;;;5006846;28;20038;-71
2022/03/30 12:00:57;;;;;;;11.13;2.70;;;22.80;65.50;;;;;;5004691;28;20018;-72
2022/03/30 12:03:25;;;;;;;9.10;2.75;;;22.80;64.90;;;;;;5008545;28;20091;-72
2022/03/30 12:06:00;;;;;;;11.88;2.55;;;22.80;64.50;;;;;;5006374;28;20021;-72
2022/03/30 12:08:27;;;;;;;12.52;4.38;;;22.80;64.10;;;;;;5006400;28;20128;-72
2022/03/30 12:10:59;;;;;;;25.40;7.53;;;22.80;64.20;;;;;;5004472;28;20034;-72
2022/03/30 12:13:27;;;;;;;15.32;4.35;;;22.70;65.90;;;;;;5006884;28;20470;-72
2022/03/30 12:16:20;;;;;;;18.48;4.78;;;22.70;66.80;;;;;;5005369;28;20022;-72
2022/03/30 12:18:50;;;;;;;13.27;4.20;;;22.60;67.30;;;;;;5003265;28;20559;-72
2022/03/30 12:21:25;;;;;;;13.98;3.95;;;22.60;67.60;;;;;;5005988;28;20034;-72
2022/03/30 12:24:02;;;;;;;11.07;3.45;;;22.60;67.70;;;;;;5007034;28;20064;-73
2022/03/30 12:26:31;;;;;;;10.77;3.25;;;22.60;67.70;;;;;;5007020;28;20140;-72
2022/03/30 12:29:10;;;;;;;10.55;2.75;;;22.70;67.90;;;;;;5004855;28;20029;-72
2022/03/30 12:31:44;;;;;;;17.08;3.25;;;22.70;68.00;;;;;;5005743;28;20121;-72
2022/03/30 12:34:12;;;;;;;10.35;2.70;;;22.70;68.20;;;;;;5006828;28;20567;-72
2022/03/30 12:36:44;;;;;;;6.72;2.03;;;22.80;68.10;;;;;;5004420;28;20112;-72
2022/03/30 12:39:28;;;;;;;9.40;2.22;;;22.80;67.80;;;;;;5008211;28;20021;-72
2022/03/30 12:42:17;;;;;;;8.88;1.75;;;22.80;67.40;;;;;;5004272;28;20030;-73
2022/03/30 12:44:52;;;;;;;8.75;2.20;;;22.80;67.00;;;;;;5006944;28;20535;-72
2022/03/30 12:47:24;;;;;;;;;;;22.80;66.70;;;;;;5007986;28;20018;-72
2022/03/30 12:49:53;;;;;;;12.60;3.60;;;22.70;66.40;;;;;;5005529;28;19909;-72
2022/03/30 12:52:21;;;;;;;12.10;3.17;;;22.70;66.30;;;;;;5005053;28;20489;-72
2022/03/30 12:54:52;;;;;;;10.73;3.47;;;22.70;66.20;;;;;;5002684;28;20084;-72
2022/03/30 12:57:31;;;;;;;6.60;2.55;;;22.80;66.00;;;;;;5004205;28;20037;-72
2022/03/30 13:00:24;;;;;;;9.50;2.50;;;22.80;65.80;;;;;;5006160;28;20434;-72
2022/03/30 13:03:30;;;;;;;11.30;2.55;;;22.80;65.10;;;;;;5003771;28;20025;-72
2022/03/30 13:06:07;;;;;;;8.05;2.67;;;22.80;64.70;;;;;;4973398;28;20025;-72
2022/03/30 13:08:34;;;;;;;10.20;2.83;;;22.90;64.40;;;;;;5003479;28;20076;-72
2022/03/30 13:11:04;;;;;;;12.13;3.78;;;22.90;63.80;;;;;;5005522;28;20018;-73
2022/03/30 13:13:39;;;;;;;9.32;3.88;;;22.90;63.60;;;;;;5004618;28;20026;-72